Lowville, Pennsylvania
Current Conditions -  °F | °C
As of 7:51 PM on Friday 28 Nov 2014 (Local Time) from KERI Reporting Station
Few Clouds Few Clouds  
Wind Chill: 16°   Ceiling: Unl
Heat Index: 25°   Visibility: 10mi
Dew Point: 14°   Wind: 8mph
Humidity: 63%   Direction: 180°S
Pressure: 30.22"   Gusts: NA
Location:  42.0384°N, 79.8318°W
Report Text: KERI 290051Z 18007KT 10SM FEW090 M04/M10 A3022 RMK AO2 SLP243 T10391100
Loading
Personal Weather Stations






























Interactive Weather Map New forecast layout! Learn more

10-Day Weather Forecast

Advertisements
Track Severe Weather on mobile